sensor_id;sensor_type;location;lat;lon;timestamp;P1;durP1;ratioP1;P2;durP2;ratioP2
9745;SDS011;4912;50.836;12.958;2023-05-20T00:00:43;12.68;;;8.50;;
9745;SDS011;4912;50.836;12.958;2023-05-20T00:03:15;11.57;;;8.02;;
9745;SDS011;4912;50.836;12.958;2023-05-20T00:05:46;10.65;;;7.40;;
9745;SDS011;4912;50.836;12.958;2023-05-20T00:08:17;12.93;;;8.52;;
9745;SDS011;4912;50.836;12.958;2023-05-20T00:10:50;12.48;;;8.40;;
9745;SDS011;4912;50.836;12.958;2023-05-20T00:13:21;12.75;;;8.10;;
9745;SDS011;4912;50.836;12.958;2023-05-20T00:15:52;12.20;;;7.93;;
9745;SDS011;4912;50.836;12.958;2023-05-20T00:18:22;12.80;;;7.90;;
9745;SDS011;4912;50.836;12.958;2023-05-20T00:20:53;11.32;;;7.75;;
9745;SDS011;4912;50.836;12.958;2023-05-20T00:23:23;13.27;;;8.02;;
9745;SDS011;4912;50.836;12.958;2023-05-20T00:25:57;13.15;;;8.43;;
9745;SDS011;4912;50.836;12.958;2023-05-20T00:28:27;12.40;;;8.20;;
9745;SDS011;4912;50.836;12.958;2023-05-20T00:30:58;13.90;;;7.75;;
9745;SDS011;4912;50.836;12.958;2023-05-20T00:33:28;13.52;;;8.77;;
9745;SDS011;4912;50.836;12.958;2023-05-20T00:35:59;14.43;;;8.70;;
9745;SDS011;4912;50.836;12.958;2023-05-20T00:38:30;12.80;;;8.75;;
9745;SDS011;4912;50.836;12.958;2023-05-20T00:41:03;12.73;;;8.02;;
9745;SDS011;4912;50.836;12.958;2023-05-20T00:43:34;13.82;;;9.15;;
9745;SDS011;4912;50.836;12.958;2023-05-20T00:46:04;14.20;;;8.18;;
9745;SDS011;4912;50.836;12.958;2023-05-20T00:48:38;15.77;;;9.70;;
9745;SDS011;4912;50.836;12.958;2023-05-20T00:51:12;14.15;;;9.32;;
9745;SDS011;4912;50.836;12.958;2023-05-20T00:53:43;14.27;;;10.05;;
9745;SDS011;4912;50.836;12.958;2023-05-20T00:56:17;15.57;;;9.80;;
9745;SDS011;4912;50.836;12.958;2023-05-20T00:58:48;14.40;;;10.55;;
9745;SDS011;4912;50.836;12.958;2023-05-20T01:01:19;16.05;;;10.10;;
9745;SDS011;4912;50.836;12.958;2023-05-20T01:03:50;14.95;;;9.55;;
9745;SDS011;4912;50.836;12.958;2023-05-20T01:06:21;16.60;;;10.20;;
9745;SDS011;4912;50.836;12.958;2023-05-20T01:08:51;18.30;;;9.75;;
9745;SDS011;4912;50.836;12.958;2023-05-20T01:11:27;13.80;;;9.95;;
9745;SDS011;4912;50.836;12.958;2023-05-20T01:14:05;15.30;;;10.80;;
9745;SDS011;4912;50.836;12.958;2023-05-20T01:16:37;16.15;;;10.65;;
9745;SDS011;4912;50.836;12.958;2023-05-20T01:19:11;14.30;;;9.68;;
9745;SDS011;4912;50.836;12.958;2023-05-20T01:21:56;16.17;;;10.70;;
9745;SDS011;4912;50.836;12.958;2023-05-20T01:24:31;17.13;;;11.23;;
9745;SDS011;4912;50.836;12.958;2023-05-20T01:27:02;14.95;;;10.45;;
9745;SDS011;4912;50.836;12.958;2023-05-20T01:29:36;17.10;;;11.25;;
9745;SDS011;4912;50.836;12.958;2023-05-20T01:32:09;15.60;;;10.73;;
9745;SDS011;4912;50.836;12.958;2023-05-20T01:34:46;16.92;;;11.50;;
9745;SDS011;4912;50.836;12.958;2023-05-20T01:37:20;18.40;;;11.00;;
9745;SDS011;4912;50.836;12.958;2023-05-20T01:39:54;16.85;;;11.38;;
9745;SDS011;4912;50.836;12.958;2023-05-20T01:42:34;18.65;;;11.10;;
9745;SDS011;4912;50.836;12.958;2023-05-20T01:45:06;17.88;;;10.88;;
9745;SDS011;4912;50.836;12.958;2023-05-20T01:47:38;16.92;;;11.35;;
9745;SDS011;4912;50.836;12.958;2023-05-20T01:50:09;17.15;;;11.07;;
9745;SDS011;4912;50.836;12.958;2023-05-20T01:52:40;22.17;;;11.60;;
9745;SDS011;4912;50.836;12.958;2023-05-20T01:55:15;19.70;;;12.13;;
9745;SDS011;4912;50.836;12.958;2023-05-20T01:57:48;18.65;;;12.15;;
9745;SDS011;4912;50.836;12.958;2023-05-20T02:02:49;18.92;;;12.52;;
9745;SDS011;4912;50.836;12.958;2023-05-20T02:07:50;16.97;;;11.97;;
9745;SDS011;4912;50.836;12.958;2023-05-20T02:10:24;19.52;;;12.40;;
9745;SDS011;4912;50.836;12.958;2023-05-20T02:12:55;18.08;;;12.60;;
9745;SDS011;4912;50.836;12.958;2023-05-20T02:15:25;20.63;;;13.27;;
9745;SDS011;4912;50.836;12.958;2023-05-20T02:17:56;19.90;;;12.30;;
9745;SDS011;4912;50.836;12.958;2023-05-20T02:20:27;19.50;;;12.05;;
9745;SDS011;4912;50.836;12.958;2023-05-20T02:22:59;18.20;;;12.50;;
9745;SDS011;4912;50.836;12.958;2023-05-20T02:25:34;22.00;;;12.35;;
9745;SDS011;4912;50.836;12.958;2023-05-20T02:28:04;20.83;;;12.88;;
9745;SDS011;4912;50.836;12.958;2023-05-20T02:30:36;17.63;;;12.43;;
9745;SDS011;4912;50.836;12.958;2023-05-20T02:35:38;21.00;;;13.07;;
9745;SDS011;4912;50.836;12.958;2023-05-20T02:38:09;20.00;;;13.18;;
9745;SDS011;4912;50.836;12.958;2023-05-20T02:40:45;20.65;;;14.20;;
9745;SDS011;4912;50.836;12.958;2023-05-20T02:43:15;20.27;;;13.38;;
9745;SDS011;4912;50.836;12.958;2023-05-20T02:45:46;20.98;;;13.40;;
9745;SDS011;4912;50.836;12.958;2023-05-20T02:48:17;19.67;;;13.48;;
9745;SDS011;4912;50.836;12.958;2023-05-20T02:50:47;20.50;;;13.98;;
9745;SDS011;4912;50.836;12.958;2023-05-20T02:55:51;22.85;;;14.10;;
9745;SDS011;4912;50.836;12.958;2023-05-20T02:58:22;20.30;;;14.27;;
9745;SDS011;4912;50.836;12.958;2023-05-20T03:00:53;22.17;;;14.60;;
9745;SDS011;4912;50.836;12.958;2023-05-20T03:03:24;21.83;;;14.48;;
9745;SDS011;4912;50.836;12.958;2023-05-20T03:05:55;20.67;;;14.50;;
9745;SDS011;4912;50.836;12.958;2023-05-20T03:08:26;22.52;;;14.05;;
9745;SDS011;4912;50.836;12.958;2023-05-20T03:10:59;21.30;;;14.63;;
9745;SDS011;4912;50.836;12.958;2023-05-20T03:13:32;20.73;;;14.23;;
9745;SDS011;4912;50.836;12.958;2023-05-20T03:16:03;20.95;;;14.38;;
9745;SDS011;4912;50.836;12.958;2023-05-20T03:18:34;22.50;;;14.57;;
9745;SDS011;4912;50.836;12.958;2023-05-20T03:21:05;23.58;;;15.02;;
9745;SDS011;4912;50.836;12.958;2023-05-20T03:23:35;21.85;;;14.70;;
9745;SDS011;4912;50.836;12.958;2023-05-20T03:26:09;22.65;;;13.60;;
9745;SDS011;4912;50.836;12.958;2023-05-20T03:28:40;21.95;;;14.25;;
9745;SDS011;4912;50.836;12.958;2023-05-20T03:31:10;22.48;;;14.23;;
9745;SDS011;4912;50.836;12.958;2023-05-20T03:33:42;22.92;;;14.57;;
9745;SDS011;4912;50.836;12.958;2023-05-20T03:36:13;22.35;;;15.07;;
9745;SDS011;4912;50.836;12.958;2023-05-20T03:38:43;22.00;;;14.45;;
9745;SDS011;4912;50.836;12.958;2023-05-20T03:41:16;20.05;;;14.05;;
9745;SDS011;4912;50.836;12.958;2023-05-20T03:43:48;22.10;;;14.85;;
9745;SDS011;4912;50.836;12.958;2023-05-20T03:46:18;22.20;;;14.75;;
9745;SDS011;4912;50.836;12.958;2023-05-20T03:48:49;20.20;;;14.27;;
9745;SDS011;4912;50.836;12.958;2023-05-20T03:53:51;20.15;;;13.98;;
9745;SDS011;4912;50.836;12.958;2023-05-20T03:56:24;21.05;;;14.52;;
9745;SDS011;4912;50.836;12.958;2023-05-20T03:58:55;23.65;;;14.82;;
9745;SDS011;4912;50.836;12.958;2023-05-20T04:01:26;19.52;;;14.13;;
9745;SDS011;4912;50.836;12.958;2023-05-20T04:03:57;22.75;;;14.88;;
9745;SDS011;4912;50.836;12.958;2023-05-20T04:06:28;19.45;;;14.40;;
9745;SDS011;4912;50.836;12.958;2023-05-20T04:09:00;23.88;;;15.52;;
9745;SDS011;4912;50.836;12.958;2023-05-20T04:11:33;22.08;;;15.32;;
9745;SDS011;4912;50.836;12.958;2023-05-20T04:14:03;25.63;;;16.60;;
9745;SDS011;4912;50.836;12.958;2023-05-20T04:16:34;24.50;;;16.13;;
9745;SDS011;4912;50.836;12.958;2023-05-20T04:19:05;25.05;;;16.30;;
9745;SDS011;4912;50.836;12.958;2023-05-20T04:21:36;24.88;;;16.42;;
9745;SDS011;4912;50.836;12.958;2023-05-20T04:24:07;21.70;;;15.93;;
9745;SDS011;4912;50.836;12.958;2023-05-20T04:26:40;26.23;;;16.52;;
9745;SDS011;4912;50.836;12.958;2023-05-20T04:29:11;23.35;;;16.73;;
9745;SDS011;4912;50.836;12.958;2023-05-20T04:31:41;24.83;;;16.15;;
9745;SDS011;4912;50.836;12.958;2023-05-20T04:34:12;24.25;;;17.42;;
9745;SDS011;4912;50.836;12.958;2023-05-20T04:36:45;25.52;;;17.77;;
9745;SDS011;4912;50.836;12.958;2023-05-20T04:39:17;26.38;;;17.90;;
9745;SDS011;4912;50.836;12.958;2023-05-20T04:41:53;24.83;;;17.60;;
9745;SDS011;4912;50.836;12.958;2023-05-20T04:44:26;28.00;;;18.42;;
9745;SDS011;4912;50.836;12.958;2023-05-20T04:46:56;25.05;;;17.33;;
9745;SDS011;4912;50.836;12.958;2023-05-20T04:49:27;25.33;;;17.63;;
9745;SDS011;4912;50.836;12.958;2023-05-20T04:51:58;27.10;;;17.98;;
9745;SDS011;4912;50.836;12.958;2023-05-20T04:54:29;88.88;;;59.28;;
9745;SDS011;4912;50.836;12.958;2023-05-20T04:57:03;40.67;;;26.45;;
9745;SDS011;4912;50.836;12.958;2023-05-20T04:59:34;31.17;;;19.92;;
9745;SDS011;4912;50.836;12.958;2023-05-20T05:02:04;26.85;;;18.27;;
9745;SDS011;4912;50.836;12.958;2023-05-20T05:04:37;28.77;;;18.35;;
9745;SDS011;4912;50.836;12.958;2023-05-20T05:07:07;24.55;;;16.67;;
9745;SDS011;4912;50.836;12.958;2023-05-20T05:09:38;26.60;;;18.30;;
9745;SDS011;4912;50.836;12.958;2023-05-20T05:12:11;26.02;;;18.13;;
9745;SDS011;4912;50.836;12.958;2023-05-20T05:14:42;25.40;;;18.08;;
9745;SDS011;4912;50.836;12.958;2023-05-20T05:17:13;28.05;;;18.73;;
9745;SDS011;4912;50.836;12.958;2023-05-20T05:19:44;28.05;;;17.13;;
9745;SDS011;4912;50.836;12.958;2023-05-20T05:22:14;27.02;;;17.77;;
9745;SDS011;4912;50.836;12.958;2023-05-20T05:24:45;27.08;;;17.83;;
9745;SDS011;4912;50.836;12.958;2023-05-20T05:27:18;38.58;;;26.55;;
9745;SDS011;4912;50.836;12.958;2023-05-20T05:29:49;34.70;;;25.23;;
9745;SDS011;4912;50.836;12.958;2023-05-20T05:32:19;27.08;;;18.58;;
9745;SDS011;4912;50.836;12.958;2023-05-20T05:34:50;24.42;;;17.45;;
9745;SDS011;4912;50.836;12.958;2023-05-20T05:37:21;25.05;;;17.92;;
9745;SDS011;4912;50.836;12.958;2023-05-20T05:39:52;26.08;;;17.77;;
9745;SDS011;4912;50.836;12.958;2023-05-20T05:42:25;25.63;;;17.17;;
9745;SDS011;4912;50.836;12.958;2023-05-20T05:44:56;26.50;;;17.17;;
9745;SDS011;4912;50.836;12.958;2023-05-20T05:47:26;24.00;;;17.17;;
9745;SDS011;4912;50.836;12.958;2023-05-20T05:49:59;25.00;;;16.42;;
9745;SDS011;4912;50.836;12.958;2023-05-20T05:52:31;28.10;;;18.77;;
9745;SDS011;4912;50.836;12.958;2023-05-20T05:55:04;23.77;;;16.52;;
9745;SDS011;4912;50.836;12.958;2023-05-20T05:57:40;22.52;;;17.00;;
9745;SDS011;4912;50.836;12.958;2023-05-20T06:00:14;25.55;;;17.60;;
9745;SDS011;4912;50.836;12.958;2023-05-20T06:02:45;26.95;;;18.15;;
9745;SDS011;4912;50.836;12.958;2023-05-20T06:05:29;24.05;;;16.58;;
9745;SDS011;4912;50.836;12.958;2023-05-20T06:08:00;31.58;;;17.27;;
9745;SDS011;4912;50.836;12.958;2023-05-20T06:10:33;25.40;;;17.48;;
9745;SDS011;4912;50.836;12.958;2023-05-20T06:13:06;23.40;;;17.02;;
9745;SDS011;4912;50.836;12.958;2023-05-20T06:15:38;26.73;;;17.65;;
9745;SDS011;4912;50.836;12.958;2023-05-20T06:18:09;29.33;;;18.17;;
9745;SDS011;4912;50.836;12.958;2023-05-20T06:20:39;27.00;;;18.45;;
9745;SDS011;4912;50.836;12.958;2023-05-20T06:23:10;24.00;;;16.42;;
9745;SDS011;4912;50.836;12.958;2023-05-20T06:25:59;36.80;;;26.45;;
9745;SDS011;4912;50.836;12.958;2023-05-20T06:28:33;38.20;;;26.90;;
9745;SDS011;4912;50.836;12.958;2023-05-20T06:31:04;29.55;;;20.08;;
9745;SDS011;4912;50.836;12.958;2023-05-20T06:33:35;25.58;;;18.15;;
9745;SDS011;4912;50.836;12.958;2023-05-20T06:36:09;27.48;;;17.70;;
9745;SDS011;4912;50.836;12.958;2023-05-20T06:38:40;28.08;;;18.38;;
9745;SDS011;4912;50.836;12.958;2023-05-20T06:41:13;25.85;;;16.80;;
9745;SDS011;4912;50.836;12.958;2023-05-20T06:43:46;26.58;;;17.42;;
9745;SDS011;4912;50.836;12.958;2023-05-20T06:46:37;24.55;;;17.75;;
9745;SDS011;4912;50.836;12.958;2023-05-20T06:49:11;22.95;;;15.88;;
9745;SDS011;4912;50.836;12.958;2023-05-20T06:51:42;24.98;;;17.38;;
9745;SDS011;4912;50.836;12.958;2023-05-20T06:54:12;24.63;;;16.35;;
9745;SDS011;4912;50.836;12.958;2023-05-20T06:56:43;23.45;;;16.95;;
9745;SDS011;4912;50.836;12.958;2023-05-20T06:59:17;22.73;;;15.88;;
9745;SDS011;4912;50.836;12.958;2023-05-20T07:01:47;23.75;;;15.23;;
9745;SDS011;4912;50.836;12.958;2023-05-20T07:04:18;19.98;;;14.90;;
9745;SDS011;4912;50.836;12.958;2023-05-20T07:06:48;20.88;;;15.27;;
9745;SDS011;4912;50.836;12.958;2023-05-20T07:09:19;23.08;;;15.82;;
9745;SDS011;4912;50.836;12.958;2023-05-20T07:11:50;26.85;;;15.13;;
9745;SDS011;4912;50.836;12.958;2023-05-20T07:14:23;23.52;;;15.63;;
9745;SDS011;4912;50.836;12.958;2023-05-20T07:16:54;21.15;;;15.43;;
9745;SDS011;4912;50.836;12.958;2023-05-20T07:19:24;21.13;;;14.88;;
9745;SDS011;4912;50.836;12.958;2023-05-20T07:24:52;22.05;;;15.05;;
9745;SDS011;4912;50.836;12.958;2023-05-20T07:27:22;20.17;;;14.13;;
9745;SDS011;4912;50.836;12.958;2023-05-20T07:29:55;20.23;;;13.95;;
9745;SDS011;4912;50.836;12.958;2023-05-20T07:32:26;20.45;;;14.68;;
9745;SDS011;4912;50.836;12.958;2023-05-20T07:34:57;18.13;;;13.30;;
9745;SDS011;4912;50.836;12.958;2023-05-20T07:37:28;19.20;;;12.63;;
9745;SDS011;4912;50.836;12.958;2023-05-20T07:39:59;19.55;;;13.40;;
9745;SDS011;4912;50.836;12.958;2023-05-20T07:42:31;20.92;;;14.00;;
9745;SDS011;4912;50.836;12.958;2023-05-20T07:45:05;18.52;;;14.48;;
9745;SDS011;4912;50.836;12.958;2023-05-20T07:47:37;17.35;;;13.63;;
9745;SDS011;4912;50.836;12.958;2023-05-20T07:50:08;20.38;;;14.10;;
9745;SDS011;4912;50.836;12.958;2023-05-20T07:52:40;16.35;;;12.68;;
9745;SDS011;4912;50.836;12.958;2023-05-20T07:55:25;17.75;;;11.65;;
9745;SDS011;4912;50.836;12.958;2023-05-20T07:57:56;21.10;;;12.10;;
9745;SDS011;4912;50.836;12.958;2023-05-20T08:00:29;19.42;;;13.10;;
9745;SDS011;4912;50.836;12.958;2023-05-20T08:03:03;16.73;;;12.18;;
9745;SDS011;4912;50.836;12.958;2023-05-20T08:05:53;18.07;;;12.10;;
9745;SDS011;4912;50.836;12.958;2023-05-20T08:08:24;16.95;;;12.02;;
9745;SDS011;4912;50.836;12.958;2023-05-20T08:11:02;16.10;;;12.43;;
9745;SDS011;4912;50.836;12.958;2023-05-20T08:13:33;16.48;;;11.93;;
9745;SDS011;4912;50.836;12.958;2023-05-20T08:16:06;15.35;;;11.93;;
9745;SDS011;4912;50.836;12.958;2023-05-20T08:18:37;16.52;;;12.45;;
9745;SDS011;4912;50.836;12.958;2023-05-20T08:21:08;16.95;;;12.45;;
9745;SDS011;4912;50.836;12.958;2023-05-20T08:23:41;16.58;;;13.05;;
9745;SDS011;4912;50.836;12.958;2023-05-20T08:28:42;16.50;;;12.70;;
9745;SDS011;4912;50.836;12.958;2023-05-20T08:31:18;16.55;;;12.02;;
9745;SDS011;4912;50.836;12.958;2023-05-20T08:33:49;16.38;;;12.77;;
9745;SDS011;4912;50.836;12.958;2023-05-20T08:36:19;14.93;;;11.85;;
9745;SDS011;4912;50.836;12.958;2023-05-20T08:38:50;15.10;;;11.98;;
9745;SDS011;4912;50.836;12.958;2023-05-20T08:41:21;16.48;;;12.13;;
9745;SDS011;4912;50.836;12.958;2023-05-20T08:43:52;14.65;;;10.43;;
9745;SDS011;4912;50.836;12.958;2023-05-20T08:46:26;16.05;;;11.32;;
9745;SDS011;4912;50.836;12.958;2023-05-20T08:48:58;14.40;;;11.07;;
9745;SDS011;4912;50.836;12.958;2023-05-20T08:51:28;17.40;;;12.25;;
9745;SDS011;4912;50.836;12.958;2023-05-20T08:54:02;14.35;;;11.52;;
9745;SDS011;4912;50.836;12.958;2023-05-20T08:56:33;15.50;;;11.40;;
9745;SDS011;4912;50.836;12.958;2023-05-20T08:59:05;14.73;;;10.73;;
9745;SDS011;4912;50.836;12.958;2023-05-20T09:01:39;13.93;;;10.05;;
9745;SDS011;4912;50.836;12.958;2023-05-20T09:04:11;11.90;;;9.93;;
9745;SDS011;4912;50.836;12.958;2023-05-20T09:06:42;14.00;;;11.15;;
9745;SDS011;4912;50.836;12.958;2023-05-20T09:09:13;14.05;;;10.75;;
9745;SDS011;4912;50.836;12.958;2023-05-20T09:11:44;16.40;;;12.15;;
9745;SDS011;4912;50.836;12.958;2023-05-20T09:14:15;16.63;;;11.48;;
9745;SDS011;4912;50.836;12.958;2023-05-20T09:16:49;16.70;;;11.10;;
9745;SDS011;4912;50.836;12.958;2023-05-20T09:19:20;17.08;;;10.98;;
9745;SDS011;4912;50.836;12.958;2023-05-20T09:21:52;18.58;;;13.27;;
9745;SDS011;4912;50.836;12.958;2023-05-20T09:24:24;17.67;;;12.65;;
9745;SDS011;4912;50.836;12.958;2023-05-20T09:26:55;14.77;;;10.90;;
9745;SDS011;4912;50.836;12.958;2023-05-20T09:29:26;15.10;;;10.68;;
9745;SDS011;4912;50.836;12.958;2023-05-20T09:32:00;17.23;;;11.35;;
9745;SDS011;4912;50.836;12.958;2023-05-20T09:34:31;13.82;;;11.27;;
9745;SDS011;4912;50.836;12.958;2023-05-20T09:37:02;12.73;;;10.82;;
9745;SDS011;4912;50.836;12.958;2023-05-20T09:39:37;16.98;;;11.77;;
9745;SDS011;4912;50.836;12.958;2023-05-20T09:42:15;12.60;;;10.80;;
9745;SDS011;4912;50.836;12.958;2023-05-20T09:44:52;15.05;;;11.80;;
9745;SDS011;4912;50.836;12.958;2023-05-20T09:47:26;15.98;;;10.90;;
9745;SDS011;4912;50.836;12.958;2023-05-20T09:49:57;15.00;;;10.85;;
9745;SDS011;4912;50.836;12.958;2023-05-20T09:52:29;13.68;;;11.25;;
9745;SDS011;4912;50.836;12.958;2023-05-20T09:55:00;12.75;;;11.07;;
9745;SDS011;4912;50.836;12.958;2023-05-20T09:57:33;14.43;;;11.75;;
9745;SDS011;4912;50.836;12.958;2023-05-20T10:00:06;16.48;;;11.27;;
9745;SDS011;4912;50.836;12.958;2023-05-20T10:02:43;12.48;;;10.52;;
9745;SDS011;4912;50.836;12.958;2023-05-20T10:05:16;17.35;;;11.73;;
9745;SDS011;4912;50.836;12.958;2023-05-20T10:11:12;13.18;;;11.02;;
9745;SDS011;4912;50.836;12.958;2023-05-20T10:16:53;12.60;;;10.57;;
9745;SDS011;4912;50.836;12.958;2023-05-20T10:19:37;14.48;;;11.13;;
9745;SDS011;4912;50.836;12.958;2023-05-20T10:22:08;14.63;;;9.85;;
9745;SDS011;4912;50.836;12.958;2023-05-20T10:24:40;14.07;;;10.77;;
9745;SDS011;4912;50.836;12.958;2023-05-20T10:27:13;11.93;;;10.45;;
9745;SDS011;4912;50.836;12.958;2023-05-20T10:29:49;15.25;;;11.15;;
9745;SDS011;4912;50.836;12.958;2023-05-20T10:32:24;15.77;;;10.77;;
9745;SDS011;4912;50.836;12.958;2023-05-20T10:35:00;12.68;;;10.35;;
9745;SDS011;4912;50.836;12.958;2023-05-20T10:37:33;14.73;;;11.68;;
9745;SDS011;4912;50.836;12.958;2023-05-20T10:40:12;13.52;;;10.30;;
9745;SDS011;4912;50.836;12.958;2023-05-20T10:42:44;12.68;;;10.23;;
9745;SDS011;4912;50.836;12.958;2023-05-20T10:45:24;12.38;;;10.10;;
9745;SDS011;4912;50.836;12.958;2023-05-20T10:47:58;15.93;;;11.73;;
9745;SDS011;4912;50.836;12.958;2023-05-20T10:50:36;14.75;;;10.50;;
9745;SDS011;4912;50.836;12.958;2023-05-20T10:53:10;12.07;;;9.80;;
9745;SDS011;4912;50.836;12.958;2023-05-20T10:55:59;13.13;;;10.32;;
9745;SDS011;4912;50.836;12.958;2023-05-20T10:58:35;13.10;;;10.20;;
9745;SDS011;4912;50.836;12.958;2023-05-20T11:01:07;12.35;;;9.65;;
9745;SDS011;4912;50.836;12.958;2023-05-20T11:03:40;16.33;;;9.32;;
9745;SDS011;4912;50.836;12.958;2023-05-20T11:06:15;16.35;;;10.73;;
9745;SDS011;4912;50.836;12.958;2023-05-20T11:08:47;14.27;;;11.02;;
9745;SDS011;4912;50.836;12.958;2023-05-20T11:11:18;15.30;;;11.65;;
9745;SDS011;4912;50.836;12.958;2023-05-20T11:13:51;14.93;;;11.23;;
9745;SDS011;4912;50.836;12.958;2023-05-20T11:16:22;12.63;;;11.05;;
9745;SDS011;4912;50.836;12.958;2023-05-20T11:18:53;11.50;;;10.20;;
9745;SDS011;4912;50.836;12.958;2023-05-20T11:21:26;13.55;;;9.93;;
9745;SDS011;4912;50.836;12.958;2023-05-20T11:23:57;14.90;;;10.75;;
9745;SDS011;4912;50.836;12.958;2023-05-20T11:26:28;15.38;;;10.60;;
9745;SDS011;4912;50.836;12.958;2023-05-20T11:28:59;15.52;;;10.18;;
9745;SDS011;4912;50.836;12.958;2023-05-20T11:31:30;13.48;;;9.70;;
9745;SDS011;4912;50.836;12.958;2023-05-20T11:34:01;14.65;;;10.20;;
9745;SDS011;4912;50.836;12.958;2023-05-20T11:36:34;11.43;;;8.50;;
9745;SDS011;4912;50.836;12.958;2023-05-20T11:39:10;13.48;;;8.55;;
9745;SDS011;4912;50.836;12.958;2023-05-20T11:41:42;11.52;;;9.70;;
9745;SDS011;4912;50.836;12.958;2023-05-20T11:44:12;10.70;;;9.60;;
9745;SDS011;4912;50.836;12.958;2023-05-20T11:46:44;11.18;;;8.82;;
9745;SDS011;4912;50.836;12.958;2023-05-20T11:49:16;14.68;;;9.18;;
9745;SDS011;4912;50.836;12.958;2023-05-20T11:51:49;12.15;;;9.10;;
9745;SDS011;4912;50.836;12.958;2023-05-20T11:54:21;10.05;;;8.13;;
9745;SDS011;4912;50.836;12.958;2023-05-20T11:56:52;11.40;;;9.30;;
9745;SDS011;4912;50.836;12.958;2023-05-20T11:59:24;12.40;;;8.38;;
9745;SDS011;4912;50.836;12.958;2023-05-20T12:01:55;10.05;;;8.52;;
9745;SDS011;4912;50.836;12.958;2023-05-20T12:04:26;11.43;;;8.35;;
9745;SDS011;4912;50.836;12.958;2023-05-20T12:06:59;10.82;;;9.10;;
9745;SDS011;4912;50.836;12.958;2023-05-20T12:09:30;12.48;;;8.30;;
9745;SDS011;4912;50.836;12.958;2023-05-20T12:12:00;10.40;;;8.35;;
9745;SDS011;4912;50.836;12.958;2023-05-20T12:14:30;11.32;;;8.73;;
9745;SDS011;4912;50.836;12.958;2023-05-20T12:17:01;24.02;;;9.38;;
9745;SDS011;4912;50.836;12.958;2023-05-20T12:19:32;13.60;;;9.45;;
9745;SDS011;4912;50.836;12.958;2023-05-20T12:22:07;15.55;;;9.40;;
9745;SDS011;4912;50.836;12.958;2023-05-20T12:24:38;10.10;;;9.00;;
9745;SDS011;4912;50.836;12.958;2023-05-20T12:27:09;14.60;;;8.93;;
9745;SDS011;4912;50.836;12.958;2023-05-20T12:29:39;13.50;;;9.40;;
9745;SDS011;4912;50.836;12.958;2023-05-20T12:32:10;11.85;;;8.73;;
9745;SDS011;4912;50.836;12.958;2023-05-20T12:34:40;11.25;;;9.15;;
9745;SDS011;4912;50.836;12.958;2023-05-20T12:37:14;12.48;;;9.73;;
9745;SDS011;4912;50.836;12.958;2023-05-20T12:39:44;13.25;;;9.50;;
9745;SDS011;4912;50.836;12.958;2023-05-20T12:42:15;10.63;;;9.52;;
9745;SDS011;4912;50.836;12.958;2023-05-20T12:44:45;9.57;;;8.57;;
9745;SDS011;4912;50.836;12.958;2023-05-20T12:47:15;11.15;;;8.35;;
9745;SDS011;4912;50.836;12.958;2023-05-20T12:49:46;11.68;;;8.82;;
9745;SDS011;4912;50.836;12.958;2023-05-20T12:52:19;10.93;;;9.02;;
9745;SDS011;4912;50.836;12.958;2023-05-20T12:54:50;12.48;;;8.82;;
9745;SDS011;4912;50.836;12.958;2023-05-20T12:57:20;11.30;;;9.25;;
9745;SDS011;4912;50.836;12.958;2023-05-20T12:59:51;11.48;;;9.02;;
9745;SDS011;4912;50.836;12.958;2023-05-20T13:02:22;13.18;;;8.80;;
9745;SDS011;4912;50.836;12.958;2023-05-20T13:04:53;11.20;;;9.48;;
9745;SDS011;4912;50.836;12.958;2023-05-20T13:07:26;10.43;;;9.32;;
9745;SDS011;4912;50.836;12.958;2023-05-20T13:09:57;13.70;;;10.30;;
9745;SDS011;4912;50.836;12.958;2023-05-20T13:12:28;11.52;;;9.75;;
9745;SDS011;4912;50.836;12.958;2023-05-20T13:14:59;13.80;;;9.98;;
9745;SDS011;4912;50.836;12.958;2023-05-20T13:17:30;12.00;;;10.50;;
9745;SDS011;4912;50.836;12.958;2023-05-20T13:20:00;12.95;;;10.35;;
9745;SDS011;4912;50.836;12.958;2023-05-20T13:22:34;17.77;;;10.25;;
9745;SDS011;4912;50.836;12.958;2023-05-20T13:25:06;14.50;;;8.45;;
9745;SDS011;4912;50.836;12.958;2023-05-20T13:27:37;10.85;;;8.43;;
9745;SDS011;4912;50.836;12.958;2023-05-20T13:30:13;12.93;;;7.80;;
9745;SDS011;4912;50.836;12.958;2023-05-20T13:32:44;9.60;;;7.63;;
9745;SDS011;4912;50.836;12.958;2023-05-20T13:35:14;10.73;;;7.78;;
9745;SDS011;4912;50.836;12.958;2023-05-20T13:37:48;11.15;;;8.40;;
9745;SDS011;4912;50.836;12.958;2023-05-20T13:40:18;14.70;;;9.32;;
9745;SDS011;4912;50.836;12.958;2023-05-20T13:42:49;13.73;;;10.00;;
9745;SDS011;4912;50.836;12.958;2023-05-20T13:45:20;10.50;;;8.98;;
9745;SDS011;4912;50.836;12.958;2023-05-20T13:47:51;12.75;;;9.77;;
9745;SDS011;4912;50.836;12.958;2023-05-20T13:50:22;12.82;;;9.90;;
9745;SDS011;4912;50.836;12.958;2023-05-20T13:52:55;11.70;;;9.95;;
9745;SDS011;4912;50.836;12.958;2023-05-20T13:55:25;12.75;;;9.27;;
9745;SDS011;4912;50.836;12.958;2023-05-20T13:57:57;12.00;;;9.38;;
9745;SDS011;4912;50.836;12.958;2023-05-20T14:00:27;13.38;;;8.75;;
9745;SDS011;4912;50.836;12.958;2023-05-20T14:02:58;11.98;;;9.35;;
9745;SDS011;4912;50.836;12.958;2023-05-20T14:05:30;11.10;;;8.77;;
9745;SDS011;4912;50.836;12.958;2023-05-20T14:08:07;12.27;;;9.02;;
9745;SDS011;4912;50.836;12.958;2023-05-20T14:10:37;12.10;;;9.48;;
9745;SDS011;4912;50.836;12.958;2023-05-20T14:13:08;11.38;;;8.82;;
9745;SDS011;4912;50.836;12.958;2023-05-20T14:15:38;11.93;;;8.57;;
9745;SDS011;4912;50.836;12.958;2023-05-20T14:18:09;12.32;;;8.95;;
9745;SDS011;4912;50.836;12.958;2023-05-20T14:20:40;11.52;;;8.75;;
9745;SDS011;4912;50.836;12.958;2023-05-20T14:23:13;11.45;;;9.10;;
9745;SDS011;4912;50.836;12.958;2023-05-20T14:25:47;11.65;;;8.75;;
9745;SDS011;4912;50.836;12.958;2023-05-20T14:28:18;14.57;;;10.35;;
9745;SDS011;4912;50.836;12.958;2023-05-20T14:30:48;12.25;;;8.82;;
9745;SDS011;4912;50.836;12.958;2023-05-20T14:33:20;13.23;;;9.18;;
9745;SDS011;4912;50.836;12.958;2023-05-20T14:35:50;12.23;;;9.00;;
9745;SDS011;4912;50.836;12.958;2023-05-20T14:38:23;10.15;;;8.98;;
9745;SDS011;4912;50.836;12.958;2023-05-20T14:40:54;12.25;;;9.48;;
9745;SDS011;4912;50.836;12.958;2023-05-20T14:43:25;10.77;;;9.07;;
9745;SDS011;4912;50.836;12.958;2023-05-20T14:45:57;14.73;;;9.95;;
9745;SDS011;4912;50.836;12.958;2023-05-20T14:48:27;13.85;;;10.23;;
9745;SDS011;4912;50.836;12.958;2023-05-20T14:50:58;11.30;;;10.00;;
9745;SDS011;4912;50.836;12.958;2023-05-20T14:53:31;13.77;;;10.07;;
9745;SDS011;4912;50.836;12.958;2023-05-20T14:56:01;16.60;;;10.95;;
9745;SDS011;4912;50.836;12.958;2023-05-20T14:58:33;13.32;;;10.55;;
9745;SDS011;4912;50.836;12.958;2023-05-20T15:01:04;11.63;;;9.85;;
9745;SDS011;4912;50.836;12.958;2023-05-20T15:03:34;15.07;;;10.63;;
9745;SDS011;4912;50.836;12.958;2023-05-20T15:06:05;14.88;;;10.10;;
9745;SDS011;4912;50.836;12.958;2023-05-20T15:08:39;15.32;;;10.90;;
9745;SDS011;4912;50.836;12.958;2023-05-20T15:11:10;14.20;;;10.38;;
9745;SDS011;4912;50.836;12.958;2023-05-20T15:13:40;14.70;;;10.80;;
9745;SDS011;4912;50.836;12.958;2023-05-20T15:16:12;17.85;;;11.48;;
9745;SDS011;4912;50.836;12.958;2023-05-20T15:18:45;13.27;;;10.20;;
9745;SDS011;4912;50.836;12.958;2023-05-20T15:21:15;13.20;;;10.05;;
9745;SDS011;4912;50.836;12.958;2023-05-20T15:23:49;13.35;;;10.90;;
9745;SDS011;4912;50.836;12.958;2023-05-20T15:26:21;16.65;;;10.45;;
9745;SDS011;4912;50.836;12.958;2023-05-20T15:28:52;18.17;;;10.27;;
9745;SDS011;4912;50.836;12.958;2023-05-20T15:31:23;17.35;;;10.35;;